sensor_id;sensor_type;location;lat;lon;timestamp;P1;durP1;ratioP1;P2;durP2;ratioP2
43431;SDS011;40365;41.866;21.942;2022-09-30T00:00:42;648.78;;;336.65;;
43431;SDS011;40365;41.866;21.942;2022-09-30T00:03:09;577.50;;;311.27;;
43431;SDS011;40365;41.866;21.942;2022-09-30T00:05:35;590.38;;;324.08;;
43431;SDS011;40365;41.866;21.942;2022-09-30T00:08:01;517.10;;;294.45;;
43431;SDS011;40365;41.866;21.942;2022-09-30T00:10:27;471.30;;;284.35;;
43431;SDS011;40365;41.866;21.942;2022-09-30T00:12:53;472.48;;;288.75;;
43431;SDS011;40365;41.866;21.942;2022-09-30T00:15:20;460.08;;;283.20;;
43431;SDS011;40365;41.866;21.942;2022-09-30T00:17:46;445.20;;;275.42;;
43431;SDS011;40365;41.866;21.942;2022-09-30T00:20:12;458.58;;;283.23;;
43431;SDS011;40365;41.866;21.942;2022-09-30T00:22:38;448.35;;;277.90;;
43431;SDS011;40365;41.866;21.942;2022-09-30T00:25:05;483.83;;;291.23;;
43431;SDS011;40365;41.866;21.942;2022-09-30T00:28:59;490.27;;;293.42;;
43431;SDS011;40365;41.866;21.942;2022-09-30T00:32:13;645.45;;;331.20;;
43431;SDS011;40365;41.866;21.942;2022-09-30T00:34:39;646.03;;;338.58;;
43431;SDS011;40365;41.866;21.942;2022-09-30T00:37:05;620.78;;;315.90;;
43431;SDS011;40365;41.866;21.942;2022-09-30T00:39:32;622.08;;;327.25;;
43431;SDS011;40365;41.866;21.942;2022-09-30T00:42:02;571.10;;;314.00;;
43431;SDS011;40365;41.866;21.942;2022-09-30T00:49:59;610.70;;;320.83;;
43431;SDS011;40365;41.866;21.942;2022-09-30T00:52:26;613.53;;;312.27;;
43431;SDS011;40365;41.866;21.942;2022-09-30T00:54:54;675.95;;;331.77;;
43431;SDS011;40365;41.866;21.942;2022-09-30T00:57:22;592.53;;;310.40;;
43431;SDS011;40365;41.866;21.942;2022-09-30T00:59:48;630.58;;;327.80;;
43431;SDS011;40365;41.866;21.942;2022-09-30T01:02:16;574.92;;;312.08;;
43431;SDS011;40365;41.866;21.942;2022-09-30T01:04:42;587.85;;;320.10;;
43431;SDS011;40365;41.866;21.942;2022-09-30T01:07:09;623.45;;;326.05;;
43431;SDS011;40365;41.866;21.942;2022-09-30T01:09:36;585.83;;;316.17;;
43431;SDS011;40365;41.866;21.942;2022-09-30T01:12:03;626.90;;;314.38;;
43431;SDS011;40365;41.866;21.942;2022-09-30T01:18:04;633.72;;;328.58;;
43431;SDS011;40365;41.866;21.942;2022-09-30T01:31:57;660.10;;;332.23;;
43431;SDS011;40365;41.866;21.942;2022-09-30T01:36:42;586.97;;;302.38;;
43431;SDS011;40365;41.866;21.942;2022-09-30T01:39:16;613.30;;;322.35;;
43431;SDS011;40365;41.866;21.942;2022-09-30T01:46:36;656.97;;;334.80;;
43431;SDS011;40365;41.866;21.942;2022-09-30T01:54:02;544.05;;;302.55;;
43431;SDS011;40365;41.866;21.942;2022-09-30T01:56:50;580.17;;;314.13;;
43431;SDS011;40365;41.866;21.942;2022-09-30T01:59:23;578.05;;;316.17;;
43431;SDS011;40365;41.866;21.942;2022-09-30T02:01:57;575.38;;;314.33;;
43431;SDS011;40365;41.866;21.942;2022-09-30T02:04:42;555.28;;;309.23;;
43431;SDS011;40365;41.866;21.942;2022-09-30T02:07:17;599.95;;;325.27;;
43431;SDS011;40365;41.866;21.942;2022-09-30T02:09:49;618.90;;;327.55;;
43431;SDS011;40365;41.866;21.942;2022-09-30T02:14:31;674.55;;;338.73;;
43431;SDS011;40365;41.866;21.942;2022-09-30T02:17:07;656.00;;;330.75;;
43431;SDS011;40365;41.866;21.942;2022-09-30T02:19:42;686.42;;;340.27;;
43431;SDS011;40365;41.866;21.942;2022-09-30T02:22:20;623.08;;;325.63;;
43431;SDS011;40365;41.866;21.942;2022-09-30T02:24:48;673.55;;;336.88;;
43431;SDS011;40365;41.866;21.942;2022-09-30T02:27:18;634.58;;;333.08;;
43431;SDS011;40365;41.866;21.942;2022-09-30T02:30:18;683.47;;;348.80;;
43431;SDS011;40365;41.866;21.942;2022-09-30T02:32:48;664.00;;;338.60;;
43431;SDS011;40365;41.866;21.942;2022-09-30T02:37:18;667.15;;;336.20;;
43431;SDS011;40365;41.866;21.942;2022-09-30T02:40:41;699.22;;;340.13;;
43431;SDS011;40365;41.866;21.942;2022-09-30T02:43:17;665.95;;;331.48;;
43431;SDS011;40365;41.866;21.942;2022-09-30T02:45:49;653.13;;;333.35;;
43431;SDS011;40365;41.866;21.942;2022-09-30T02:48:25;683.38;;;344.88;;
43431;SDS011;40365;41.866;21.942;2022-09-30T02:50:57;657.80;;;333.58;;
43431;SDS011;40365;41.866;21.942;2022-09-30T02:58:42;652.78;;;338.23;;
43431;SDS011;40365;41.866;21.942;2022-09-30T03:01:11;633.47;;;332.00;;
43431;SDS011;40365;41.866;21.942;2022-09-30T03:03:39;690.22;;;350.98;;
43431;SDS011;40365;41.866;21.942;2022-09-30T03:06:06;670.35;;;344.05;;
43431;SDS011;40365;41.866;21.942;2022-09-30T03:09:03;677.58;;;348.17;;
43431;SDS011;40365;41.866;21.942;2022-09-30T03:11:29;636.15;;;324.83;;
43431;SDS011;40365;41.866;21.942;2022-09-30T03:19:23;652.25;;;332.00;;
43431;SDS011;40365;41.866;21.942;2022-09-30T03:29:20;720.28;;;346.45;;
43431;SDS011;40365;41.866;21.942;2022-09-30T03:34:28;696.35;;;345.80;;
43431;SDS011;40365;41.866;21.942;2022-09-30T03:39:50;721.42;;;351.45;;
43431;SDS011;40365;41.866;21.942;2022-09-30T03:45:08;722.95;;;349.33;;
43431;SDS011;40365;41.866;21.942;2022-09-30T03:47:39;734.75;;;361.40;;
43431;SDS011;40365;41.866;21.942;2022-09-30T03:50:08;729.20;;;359.50;;
43431;SDS011;40365;41.866;21.942;2022-09-30T03:52:36;709.50;;;343.92;;
43431;SDS011;40365;41.866;21.942;2022-09-30T03:55:04;716.78;;;350.73;;
43431;SDS011;40365;41.866;21.942;2022-09-30T03:57:32;721.08;;;352.23;;
43431;SDS011;40365;41.866;21.942;2022-09-30T03:59:58;724.97;;;352.77;;
43431;SDS011;40365;41.866;21.942;2022-09-30T04:02:26;727.15;;;359.40;;
43431;SDS011;40365;41.866;21.942;2022-09-30T04:04:52;714.55;;;344.02;;
43431;SDS011;40365;41.866;21.942;2022-09-30T04:07:18;720.40;;;352.13;;
43431;SDS011;40365;41.866;21.942;2022-09-30T04:09:44;722.97;;;352.58;;
43431;SDS011;40365;41.866;21.942;2022-09-30T04:12:10;706.55;;;351.98;;
43431;SDS011;40365;41.866;21.942;2022-09-30T04:14:36;701.63;;;342.98;;
43431;SDS011;40365;41.866;21.942;2022-09-30T04:17:03;694.78;;;347.17;;
43431;SDS011;40365;41.866;21.942;2022-09-30T04:19:29;688.00;;;342.02;;
43431;SDS011;40365;41.866;21.942;2022-09-30T04:21:56;693.28;;;339.48;;
43431;SDS011;40365;41.866;21.942;2022-09-30T04:24:23;692.55;;;343.83;;
43431;SDS011;40365;41.866;21.942;2022-09-30T04:26:49;724.47;;;354.45;;
43431;SDS011;40365;41.866;21.942;2022-09-30T04:29:15;704.63;;;345.40;;
43431;SDS011;40365;41.866;21.942;2022-09-30T04:31:41;674.45;;;340.90;;
43431;SDS011;40365;41.866;21.942;2022-09-30T04:34:08;669.78;;;337.23;;
43431;SDS011;40365;41.866;21.942;2022-09-30T04:36:35;651.22;;;326.63;;
43431;SDS011;40365;41.866;21.942;2022-09-30T04:39:01;689.33;;;345.80;;
43431;SDS011;40365;41.866;21.942;2022-09-30T04:41:27;673.03;;;336.80;;
43431;SDS011;40365;41.866;21.942;2022-09-30T04:43:53;678.78;;;339.25;;
43431;SDS011;40365;41.866;21.942;2022-09-30T04:46:20;676.83;;;337.92;;
43431;SDS011;40365;41.866;21.942;2022-09-30T04:48:47;667.03;;;333.20;;
43431;SDS011;40365;41.866;21.942;2022-09-30T04:51:13;655.28;;;333.25;;
43431;SDS011;40365;41.866;21.942;2022-09-30T04:53:40;659.00;;;330.80;;
43431;SDS011;40365;41.866;21.942;2022-09-30T04:56:06;682.22;;;341.25;;
43431;SDS011;40365;41.866;21.942;2022-09-30T04:58:33;691.40;;;342.50;;
43431;SDS011;40365;41.866;21.942;2022-09-30T05:01:03;670.13;;;340.45;;
43431;SDS011;40365;41.866;21.942;2022-09-30T05:03:30;667.53;;;334.20;;
43431;SDS011;40365;41.866;21.942;2022-09-30T05:05:56;656.13;;;328.10;;
43431;SDS011;40365;41.866;21.942;2022-09-30T05:08:22;667.42;;;324.38;;
43431;SDS011;40365;41.866;21.942;2022-09-30T05:10:55;691.53;;;337.33;;
43431;SDS011;40365;41.866;21.942;2022-09-30T05:13:28;644.13;;;326.58;;
43431;SDS011;40365;41.866;21.942;2022-09-30T05:15:54;614.72;;;314.33;;
43431;SDS011;40365;41.866;21.942;2022-09-30T05:18:20;630.15;;;323.10;;
43431;SDS011;40365;41.866;21.942;2022-09-30T05:20:50;613.35;;;312.42;;
43431;SDS011;40365;41.866;21.942;2022-09-30T05:23:16;612.10;;;309.77;;
43431;SDS011;40365;41.866;21.942;2022-09-30T05:25:43;611.10;;;315.75;;
43431;SDS011;40365;41.866;21.942;2022-09-30T05:28:09;581.78;;;314.15;;
43431;SDS011;40365;41.866;21.942;2022-09-30T05:30:36;586.70;;;315.77;;
43431;SDS011;40365;41.866;21.942;2022-09-30T05:33:02;552.45;;;307.33;;
43431;SDS011;40365;41.866;21.942;2022-09-30T05:35:28;573.00;;;309.52;;
43431;SDS011;40365;41.866;21.942;2022-09-30T05:37:55;585.97;;;312.63;;
43431;SDS011;40365;41.866;21.942;2022-09-30T05:40:21;619.85;;;323.52;;
43431;SDS011;40365;41.866;21.942;2022-09-30T05:42:47;663.85;;;340.63;;
43431;SDS011;40365;41.866;21.942;2022-09-30T05:45:14;598.33;;;305.50;;
43431;SDS011;40365;41.866;21.942;2022-09-30T05:47:40;679.53;;;334.25;;
43431;SDS011;40365;41.866;21.942;2022-09-30T05:50:06;694.55;;;336.98;;
43431;SDS011;40365;41.866;21.942;2022-09-30T05:52:34;612.38;;;318.00;;
43431;SDS011;40365;41.866;21.942;2022-09-30T05:55:00;658.72;;;330.05;;
43431;SDS011;40365;41.866;21.942;2022-09-30T05:57:26;808.42;;;357.52;;
43431;SDS011;40365;41.866;21.942;2022-09-30T05:59:53;557.50;;;314.05;;
43431;SDS011;40365;41.866;21.942;2022-09-30T06:02:20;498.70;;;294.48;;
43431;SDS011;40365;41.866;21.942;2022-09-30T06:04:46;427.13;;;261.10;;
43431;SDS011;40365;41.866;21.942;2022-09-30T06:07:12;429.83;;;268.27;;
43431;SDS011;40365;41.866;21.942;2022-09-30T06:09:38;425.73;;;264.27;;
43431;SDS011;40365;41.866;21.942;2022-09-30T06:12:04;441.52;;;278.00;;
43431;SDS011;40365;41.866;21.942;2022-09-30T06:14:31;412.60;;;260.95;;
43431;SDS011;40365;41.866;21.942;2022-09-30T06:16:57;369.45;;;244.30;;
43431;SDS011;40365;41.866;21.942;2022-09-30T06:21:18;429.30;;;272.05;;
43431;SDS011;40365;41.866;21.942;2022-09-30T06:23:46;422.75;;;269.55;;
43431;SDS011;40365;41.866;21.942;2022-09-30T06:27:25;473.88;;;283.70;;
43431;SDS011;40365;41.866;21.942;2022-09-30T06:29:52;457.33;;;282.35;;
43431;SDS011;40365;41.866;21.942;2022-09-30T06:32:27;446.23;;;277.65;;
43431;SDS011;40365;41.866;21.942;2022-09-30T06:34:54;421.45;;;271.08;;
43431;SDS011;40365;41.866;21.942;2022-09-30T06:37:21;427.65;;;270.42;;
43431;SDS011;40365;41.866;21.942;2022-09-30T06:40:59;510.55;;;301.38;;
43431;SDS011;40365;41.866;21.942;2022-09-30T06:43:25;518.92;;;304.38;;
43431;SDS011;40365;41.866;21.942;2022-09-30T06:45:51;478.35;;;288.13;;
43431;SDS011;40365;41.866;21.942;2022-09-30T06:48:18;487.58;;;286.85;;
43431;SDS011;40365;41.866;21.942;2022-09-30T06:50:44;486.17;;;293.02;;
43431;SDS011;40365;41.866;21.942;2022-09-30T06:53:10;525.45;;;295.50;;
43431;SDS011;40365;41.866;21.942;2022-09-30T06:55:37;564.15;;;317.77;;
43431;SDS011;40365;41.866;21.942;2022-09-30T07:02:10;552.88;;;308.60;;
43431;SDS011;40365;41.866;21.942;2022-09-30T07:06:05;555.40;;;306.75;;
43431;SDS011;40365;41.866;21.942;2022-09-30T07:09:46;614.17;;;328.17;;
43431;SDS011;40365;41.866;21.942;2022-09-30T07:16:12;648.00;;;329.63;;
43431;SDS011;40365;41.866;21.942;2022-09-30T07:18:39;654.85;;;329.90;;
43431;SDS011;40365;41.866;21.942;2022-09-30T07:21:09;625.60;;;327.13;;
43431;SDS011;40365;41.866;21.942;2022-09-30T07:23:37;591.72;;;316.55;;
43431;SDS011;40365;41.866;21.942;2022-09-30T07:27:41;650.97;;;334.00;;
43431;SDS011;40365;41.866;21.942;2022-09-30T07:31:01;656.10;;;333.95;;
43431;SDS011;40365;41.866;21.942;2022-09-30T07:37:50;709.60;;;339.08;;
43431;SDS011;40365;41.866;21.942;2022-09-30T07:41:50;697.33;;;336.63;;
43431;SDS011;40365;41.866;21.942;2022-09-30T07:44:39;8.25;;;4.80;;
43431;SDS011;40365;41.866;21.942;2022-09-30T07:47:08;11.95;;;4.70;;
43431;SDS011;40365;41.866;21.942;2022-09-30T07:49:34;8.73;;;4.25;;
43431;SDS011;40365;41.866;21.942;2022-09-30T07:52:00;4.95;;;3.25;;
43431;SDS011;40365;41.866;21.942;2022-09-30T07:56:44;9.45;;;3.85;;
43431;SDS011;40365;41.866;21.942;2022-09-30T07:59:10;8.07;;;3.72;;
43431;SDS011;40365;41.866;21.942;2022-09-30T08:01:36;5.22;;;3.33;;
43431;SDS011;40365;41.866;21.942;2022-09-30T08:04:04;5.82;;;2.97;;
43431;SDS011;40365;41.866;21.942;2022-09-30T08:06:31;8.05;;;3.00;;
43431;SDS011;40365;41.866;21.942;2022-09-30T08:09:00;6.60;;;2.97;;
43431;SDS011;40365;41.866;21.942;2022-09-30T08:11:27;7.40;;;3.05;;
43431;SDS011;40365;41.866;21.942;2022-09-30T08:17:27;5.43;;;2.85;;
43431;SDS011;40365;41.866;21.942;2022-09-30T08:21:03;6.32;;;2.95;;
43431;SDS011;40365;41.866;21.942;2022-09-30T08:23:31;6.47;;;3.03;;
43431;SDS011;40365;41.866;21.942;2022-09-30T08:26:04;6.15;;;2.53;;
43431;SDS011;40365;41.866;21.942;2022-09-30T08:28:31;6.30;;;2.75;;
43431;SDS011;40365;41.866;21.942;2022-09-30T08:33:33;6.32;;;3.03;;
43431;SDS011;40365;41.866;21.942;2022-09-30T08:36:03;10.18;;;3.53;;
43431;SDS011;40365;41.866;21.942;2022-09-30T08:39:05;4.60;;;2.70;;
43431;SDS011;40365;41.866;21.942;2022-09-30T08:53:40;7.35;;;3.20;;
43431;SDS011;40365;41.866;21.942;2022-09-30T08:56:07;6.80;;;3.47;;
43431;SDS011;40365;41.866;21.942;2022-09-30T09:01:52;5.13;;;2.85;;
43431;SDS011;40365;41.866;21.942;2022-09-30T09:04:19;4.93;;;2.63;;
43431;SDS011;40365;41.866;21.942;2022-09-30T09:09:57;6.18;;;2.45;;
43431;SDS011;40365;41.866;21.942;2022-09-30T09:22:24;5.72;;;2.00;;
43431;SDS011;40365;41.866;21.942;2022-09-30T09:24:52;5.80;;;2.45;;
43431;SDS011;40365;41.866;21.942;2022-09-30T09:27:24;3.08;;;2.20;;
43431;SDS011;40365;41.866;21.942;2022-09-30T09:32:25;4.93;;;2.33;;
43431;SDS011;40365;41.866;21.942;2022-09-30T09:34:54;3.63;;;2.10;;
43431;SDS011;40365;41.866;21.942;2022-09-30T09:39:44;6.57;;;2.60;;
43431;SDS011;40365;41.866;21.942;2022-09-30T09:43:21;5.85;;;2.67;;
43431;SDS011;40365;41.866;21.942;2022-09-30T09:48:16;4.57;;;2.10;;
43431;SDS011;40365;41.866;21.942;2022-09-30T09:53:18;6.63;;;2.58;;
43431;SDS011;40365;41.866;21.942;2022-09-30T09:55:47;4.50;;;1.92;;
43431;SDS011;40365;41.866;21.942;2022-09-30T10:00:01;5.28;;;2.10;;
43431;SDS011;40365;41.866;21.942;2022-09-30T10:02:57;5.07;;;2.05;;
43431;SDS011;40365;41.866;21.942;2022-09-30T10:05:24;3.88;;;1.60;;
43431;SDS011;40365;41.866;21.942;2022-09-30T10:07:56;4.18;;;1.80;;
43431;SDS011;40365;41.866;21.942;2022-09-30T10:10:36;2.90;;;1.35;;
43431;SDS011;40365;41.866;21.942;2022-09-30T10:13:12;4.38;;;1.70;;
43431;SDS011;40365;41.866;21.942;2022-09-30T10:15:40;4.70;;;1.77;;
43431;SDS011;40365;41.866;21.942;2022-09-30T10:19:34;8.48;;;2.00;;
43431;SDS011;40365;41.866;21.942;2022-09-30T10:24:33;8.43;;;2.42;;
43431;SDS011;40365;41.866;21.942;2022-09-30T10:27:00;4.90;;;1.70;;
43431;SDS011;40365;41.866;21.942;2022-09-30T10:29:28;4.97;;;2.13;;
43431;SDS011;40365;41.866;21.942;2022-09-30T10:31:56;4.50;;;1.60;;
43431;SDS011;40365;41.866;21.942;2022-09-30T10:39:07;6.53;;;1.73;;
43431;SDS011;40365;41.866;21.942;2022-09-30T10:41:34;2.45;;;1.23;;
43431;SDS011;40365;41.866;21.942;2022-09-30T10:44:02;3.22;;;1.52;;
43431;SDS011;40365;41.866;21.942;2022-09-30T10:46:31;6.22;;;2.00;;
43431;SDS011;40365;41.866;21.942;2022-09-30T10:48:59;4.85;;;1.40;;
43431;SDS011;40365;41.866;21.942;2022-09-30T10:51:32;3.22;;;1.42;;
43431;SDS011;40365;41.866;21.942;2022-09-30T10:54:00;8.52;;;2.63;;
43431;SDS011;40365;41.866;21.942;2022-09-30T10:56:31;3.08;;;1.70;;
43431;SDS011;40365;41.866;21.942;2022-09-30T10:58:58;2.38;;;1.13;;
43431;SDS011;40365;41.866;21.942;2022-09-30T11:01:34;2.97;;;1.42;;
43431;SDS011;40365;41.866;21.942;2022-09-30T11:06:30;4.05;;;1.50;;
43431;SDS011;40365;41.866;21.942;2022-09-30T11:11:39;3.38;;;1.30;;
43431;SDS011;40365;41.866;21.942;2022-09-30T11:16:48;4.30;;;1.35;;
43431;SDS011;40365;41.866;21.942;2022-09-30T11:19:34;2.92;;;1.45;;
43431;SDS011;40365;41.866;21.942;2022-09-30T11:22:07;7.22;;;2.40;;
43431;SDS011;40365;41.866;21.942;2022-09-30T11:24:42;3.47;;;1.63;;
43431;SDS011;40365;41.866;21.942;2022-09-30T11:32:48;5.85;;;1.90;;
43431;SDS011;40365;41.866;21.942;2022-09-30T11:35:32;3.80;;;1.35;;
43431;SDS011;40365;41.866;21.942;2022-09-30T11:38:07;7.65;;;2.88;;
43431;SDS011;40365;41.866;21.942;2022-09-30T11:53:35;3.92;;;1.70;;
43431;SDS011;40365;41.866;21.942;2022-09-30T11:56:08;8.40;;;1.52;;
43431;SDS011;40365;41.866;21.942;2022-09-30T11:58:38;5.30;;;1.80;;
43431;SDS011;40365;41.866;21.942;2022-09-30T12:01:17;7.13;;;2.03;;
43431;SDS011;40365;41.866;21.942;2022-09-30T12:04:31;4.75;;;1.80;;
43431;SDS011;40365;41.866;21.942;2022-09-30T12:06:33;6.72;;;1.50;;
43431;SDS011;40365;41.866;21.942;2022-09-30T12:11:49;2.22;;;1.08;;
43431;SDS011;40365;41.866;21.942;2022-09-30T12:14:27;6.18;;;2.17;;
43431;SDS011;40365;41.866;21.942;2022-09-30T12:16:55;2.75;;;1.27;;
43431;SDS011;40365;41.866;21.942;2022-09-30T12:19:42;8.50;;;1.52;;
43431;SDS011;40365;41.866;21.942;2022-09-30T12:22:15;1.92;;;1.25;;
43431;SDS011;40365;41.866;21.942;2022-09-30T12:30:09;8.25;;;2.60;;
43431;SDS011;40365;41.866;21.942;2022-09-30T12:40:33;4.50;;;1.90;;
43431;SDS011;40365;41.866;21.942;2022-09-30T12:45:50;3.33;;;1.40;;
43431;SDS011;40365;41.866;21.942;2022-09-30T12:48:19;4.45;;;1.45;;
43431;SDS011;40365;41.866;21.942;2022-09-30T12:50:50;2.35;;;1.20;;
43431;SDS011;40365;41.866;21.942;2022-09-30T12:55:49;2.80;;;1.42;;
43431;SDS011;40365;41.866;21.942;2022-09-30T12:58:18;2.40;;;1.40;;
43431;SDS011;40365;41.866;21.942;2022-09-30T13:00:57;3.58;;;1.20;;
43431;SDS011;40365;41.866;21.942;2022-09-30T13:03:24;4.50;;;1.90;;
43431;SDS011;40365;41.866;21.942;2022-09-30T13:05:52;2.53;;;1.10;;
43431;SDS011;40365;41.866;21.942;2022-09-30T13:10:50;2.67;;;1.55;;
43431;SDS011;40365;41.866;21.942;2022-09-30T13:13:24;5.85;;;2.40;;
43431;SDS011;40365;41.866;21.942;2022-09-30T13:15:55;7.03;;;2.47;;
43431;SDS011;40365;41.866;21.942;2022-09-30T13:28:49;3.58;;;1.35;;
43431;SDS011;40365;41.866;21.942;2022-09-30T13:31:22;5.22;;;1.10;;
43431;SDS011;40365;41.866;21.942;2022-09-30T13:41:51;2.20;;;1.20;;
43431;SDS011;40365;41.866;21.942;2022-09-30T13:44:24;4.07;;;1.27;;
43431;SDS011;40365;41.866;21.942;2022-09-30T13:46:58;3.60;;;1.10;;
43431;SDS011;40365;41.866;21.942;2022-09-30T13:49:33;6.80;;;2.30;;
43431;SDS011;40365;41.866;21.942;2022-09-30T13:52:01;4.18;;;1.65;;
43431;SDS011;40365;41.866;21.942;2022-09-30T13:56:58;6.53;;;1.40;;
43431;SDS011;40365;41.866;21.942;2022-09-30T14:02:04;3.20;;;1.40;;
43431;SDS011;40365;41.866;21.942;2022-09-30T14:04:41;3.38;;;1.85;;
43431;SDS011;40365;41.866;21.942;2022-09-30T14:22:50;4.15;;;1.40;;
43431;SDS011;40365;41.866;21.942;2022-09-30T14:25:17;3.35;;;1.20;;
43431;SDS011;40365;41.866;21.942;2022-09-30T14:30:23;3.38;;;1.40;;
43431;SDS011;40365;41.866;21.942;2022-09-30T14:35:19;6.43;;;2.47;;
43431;SDS011;40365;41.866;21.942;2022-09-30T14:40:31;4.38;;;1.50;;
43431;SDS011;40365;41.866;21.942;2022-09-30T14:42:59;4.30;;;2.08;;
43431;SDS011;40365;41.866;21.942;2022-09-30T14:45:30;4.35;;;1.10;;
43431;SDS011;40365;41.866;21.942;2022-09-30T14:47:58;3.67;;;1.25;;
43431;SDS011;40365;41.866;21.942;2022-09-30T14:50:27;4.78;;;2.20;;
43431;SDS011;40365;41.866;21.942;2022-09-30T14:52:57;4.00;;;2.33;;
43431;SDS011;40365;41.866;21.942;2022-09-30T14:57:51;6.75;;;2.42;;
43431;SDS011;40365;41.866;21.942;2022-09-30T15:00:23;4.55;;;1.90;;
43431;SDS011;40365;41.866;21.942;2022-09-30T15:02:52;3.03;;;1.80;;
43431;SDS011;40365;41.866;21.942;2022-09-30T15:05:18;4.18;;;1.80;;
43431;SDS011;40365;41.866;21.942;2022-09-30T15:07:44;5.72;;;3.05;;
43431;SDS011;40365;41.866;21.942;2022-09-30T15:10:17;5.53;;;2.05;;
43431;SDS011;40365;41.866;21.942;2022-09-30T15:12:46;4.57;;;1.70;;
43431;SDS011;40365;41.866;21.942;2022-09-30T15:15:31;5.43;;;2.17;;
43431;SDS011;40365;41.866;21.942;2022-09-30T15:17:59;3.05;;;2.25;;
43431;SDS011;40365;41.866;21.942;2022-09-30T15:20:29;6.88;;;2.38;;
43431;SDS011;40365;41.866;21.942;2022-09-30T15:22:56;6.63;;;2.63;;
43431;SDS011;40365;41.866;21.942;2022-09-30T15:25:25;5.28;;;2.05;;
43431;SDS011;40365;41.866;21.942;2022-09-30T15:27:52;4.07;;;1.70;;
43431;SDS011;40365;41.866;21.942;2022-09-30T15:32:44;2.90;;;1.98;;
43431;SDS011;40365;41.866;21.942;2022-09-30T15:35:13;3.30;;;1.50;;
43431;SDS011;40365;41.866;21.942;2022-09-30T15:37:41;5.10;;;1.50;;
43431;SDS011;40365;41.866;21.942;2022-09-30T15:40:11;2.70;;;1.55;;
43431;SDS011;40365;41.866;21.942;2022-09-30T15:42:57;4.10;;;2.20;;
43431;SDS011;40365;41.866;21.942;2022-09-30T15:45:30;6.78;;;3.25;;
43431;SDS011;40365;41.866;21.942;2022-09-30T15:48:20;11.35;;;5.38;;
43431;SDS011;40365;41.866;21.942;2022-09-30T15:50:53;13.77;;;7.00;;
43431;SDS011;40365;41.866;21.942;2022-09-30T15:55:59;10.45;;;2.90;;
43431;SDS011;40365;41.866;21.942;2022-09-30T16:04:01;9.50;;;3.47;;
43431;SDS011;40365;41.866;21.942;2022-09-30T16:06:47;14.40;;;5.90;;
43431;SDS011;40365;41.866;21.942;2022-09-30T16:09:19;15.68;;;5.88;;
43431;SDS011;40365;41.866;21.942;2022-09-30T16:19:21;4.85;;;2.42;;
43431;SDS011;40365;41.866;21.942;2022-09-30T16:21:49;4.82;;;2.70;;
43431;SDS011;40365;41.866;21.942;2022-09-30T16:26:52;15.23;;;7.00;;
43431;SDS011;40365;41.866;21.942;2022-09-30T16:29:19;10.85;;;4.65;;
43431;SDS011;40365;41.866;21.942;2022-09-30T16:32:57;12.40;;;5.38;;
43431;SDS011;40365;41.866;21.942;2022-09-30T16:35:25;15.18;;;6.88;;
43431;SDS011;40365;41.866;21.942;2022-09-30T16:37:59;11.05;;;5.13;;
43431;SDS011;40365;41.866;21.942;2022-09-30T16:40:25;12.60;;;4.85;;
43431;SDS011;40365;41.866;21.942;2022-09-30T16:42:52;15.27;;;5.45;;
43431;SDS011;40365;41.866;21.942;2022-09-30T16:45:19;10.95;;;5.80;;
43431;SDS011;40365;41.866;21.942;2022-09-30T16:48:16;11.07;;;5.57;;
43431;SDS011;40365;41.866;21.942;2022-09-30T16:50:59;8.07;;;4.55;;
43431;SDS011;40365;41.866;21.942;2022-09-30T16:54:23;8.23;;;4.05;;
43431;SDS011;40365;41.866;21.942;2022-09-30T16:57:18;6.00;;;3.38;;
43431;SDS011;40365;41.866;21.942;2022-09-30T16:59:45;12.27;;;4.43;;
43431;SDS011;40365;41.866;21.942;2022-09-30T17:02:12;8.98;;;4.22;;
43431;SDS011;40365;41.866;21.942;2022-09-30T17:04:39;5.28;;;2.80;;
43431;SDS011;40365;41.866;21.942;2022-09-30T17:07:05;9.90;;;4.20;;
43431;SDS011;40365;41.866;21.942;2022-09-30T17:09:31;8.65;;;6.13;;
43431;SDS011;40365;41.866;21.942;2022-09-30T17:11:57;17.90;;;10.00;;
43431;SDS011;40365;41.866;21.942;2022-09-30T17:14:25;11.77;;;7.35;;
43431;SDS011;40365;41.866;21.942;2022-09-30T17:18:46;12.70;;;7.57;;
43431;SDS011;40365;41.866;21.942;2022-09-30T17:21:12;14.73;;;7.30;;
43431;SDS011;40365;41.866;21.942;2022-09-30T17:23:41;12.82;;;7.55;;
43431;SDS011;40365;41.866;21.942;2022-09-30T17:26:07;27.70;;;19.20;;
43431;SDS011;40365;41.866;21.942;2022-09-30T17:29:10;22.15;;;13.60;;
43431;SDS011;40365;41.866;21.942;2022-09-30T17:31:37;16.00;;;9.95;;
43431;SDS011;40365;41.866;21.942;2022-09-30T17:35:41;13.93;;;9.20;;
43431;SDS011;40365;41.866;21.942;2022-09-30T17:38:07;11.50;;;6.07;;
43431;SDS011;40365;41.866;21.942;2022-09-30T17:40:34;7.88;;;4.57;;
43431;SDS011;40365;41.866;21.942;2022-09-30T17:44:41;7.57;;;4.40;;
43431;SDS011;40365;41.866;21.942;2022-09-30T17:47:07;8.07;;;4.57;;
43431;SDS011;40365;41.866;21.942;2022-09-30T17:49:34;10.32;;;4.50;;
43431;SDS011;40365;41.866;21.942;2022-09-30T17:52:00;6.80;;;3.65;;
43431;SDS011;40365;41.866;21.942;2022-09-30T17:54:50;18.05;;;8.23;;
43431;SDS011;40365;41.866;21.942;2022-09-30T17:58:38;22.70;;;10.45;;
43431;SDS011;40365;41.866;21.942;2022-09-30T18:01:05;23.42;;;11.10;;
43431;SDS011;40365;41.866;21.942;2022-09-30T18:03:32;26.13;;;11.38;;
43431;SDS011;40365;41.866;21.942;2022-09-30T18:10:39;26.52;;;16.23;;
43431;SDS011;40365;41.866;21.942;2022-09-30T18:13:05;21.92;;;13.90;;
43431;SDS011;40365;41.866;21.942;2022-09-30T18:16:35;14.90;;;10.30;;
43431;SDS011;40365;41.866;21.942;2022-09-30T18:19:02;18.73;;;10.43;;
43431;SDS011;40365;41.866;21.942;2022-09-30T18:21:29;13.90;;;8.18;;
43431;SDS011;40365;41.866;21.942;2022-09-30T18:23:55;20.85;;;11.63;;
43431;SDS011;40365;41.866;21.942;2022-09-30T18:26:22;19.60;;;13.07;;
43431;SDS011;40365;41.866;21.942;2022-09-30T18:28:48;19.92;;;13.70;;
43431;SDS011;40365;41.866;21.942;2022-09-30T18:34:50;21.33;;;14.55;;
43431;SDS011;40365;41.866;21.942;2022-09-30T18:37:16;18.48;;;11.48;;
43431;SDS011;40365;41.866;21.942;2022-09-30T18:39:43;20.17;;;13.43;;
43431;SDS011;40365;41.866;21.942;2022-09-30T18:42:10;17.42;;;11.98;;
43431;SDS011;40365;41.866;21.942;2022-09-30T18:44:36;20.90;;;12.85;;
43431;SDS011;40365;41.866;21.942;2022-09-30T18:47:03;18.90;;;11.30;;
43431;SDS011;40365;41.866;21.942;2022-09-30T18:51:00;16.13;;;9.73;;
43431;SDS011;40365;41.866;21.942;2022-09-30T18:53:27;17.50;;;7.10;;
43431;SDS011;40365;41.866;21.942;2022-09-30T18:55:58;14.50;;;7.93;;
43431;SDS011;40365;41.866;21.942;2022-09-30T18:58:24;10.55;;;6.75;;
43431;SDS011;40365;41.866;21.942;2022-09-30T19:01:23;13.55;;;7.22;;
43431;SDS011;40365;41.866;21.942;2022-09-30T19:05:39;8.35;;;5.80;;
43431;SDS011;40365;41.866;21.942;2022-09-30T19:08:06;11.07;;;6.53;;
43431;SDS011;40365;41.866;21.942;2022-09-30T19:10:33;9.70;;;5.57;;
43431;SDS011;40365;41.866;21.942;2022-09-30T19:13:20;13.88;;;8.15;;